createdAt,value
2018-01-29T00:02:09.557Z,78.09
2018-01-29T00:04:37.128Z,78.34
2018-01-29T00:07:04.749Z,78.05
2018-01-29T00:09:32.323Z,77.84
2018-01-29T00:11:59.948Z,78.06
2018-01-29T00:14:27.521Z,78.64
2018-01-29T00:16:55.100Z,78.90
2018-01-29T00:19:22.811Z,78.94
2018-01-29T00:21:50.542Z,79.15
2018-01-29T00:24:18.188Z,79.53
2018-01-29T00:26:45.752Z,79.91
2018-01-29T00:29:13.319Z,79.48
2018-01-29T00:31:40.888Z,79.83
2018-01-29T00:34:08.510Z,80.04
2018-01-29T00:36:36.120Z,80.23
2018-01-29T00:39:03.724Z,80.44
2018-01-29T00:41:31.469Z,80.46
2018-01-29T00:43:59.882Z,80.34
2018-01-29T00:46:27.441Z,80.34
2018-01-29T00:48:54.974Z,80.37
2018-01-29T00:51:23.028Z,80.87
2018-01-29T00:53:50.629Z,81.16
2018-01-29T00:59:09.286Z,81.32
2018-01-29T01:01:36.853Z,80.86
2018-01-29T01:04:04.438Z,80.75
2018-01-29T01:06:32.079Z,80.87
2018-01-29T01:08:59.671Z,80.75
2018-01-29T01:11:27.277Z,80.28
2018-01-29T01:13:54.909Z,80.19
2018-01-29T01:16:22.541Z,80.31
2018-01-29T01:18:50.113Z,80.58
2018-01-29T01:21:17.674Z,80.50
2018-01-29T01:23:45.248Z,80.29
2018-01-29T01:26:12.820Z,80.34
2018-01-29T01:28:40.396Z,80.38
2018-01-29T01:31:07.987Z,80.23
2018-01-29T01:33:35.611Z,80.36
2018-01-29T01:36:03.348Z,80.48
2018-01-29T01:38:30.930Z,80.56
2018-01-29T01:40:58.526Z,80.84
2018-01-29T01:43:26.158Z,80.73
2018-01-29T01:45:53.774Z,80.69
2018-01-29T01:48:21.328Z,81.07
2018-01-29T01:50:48.881Z,81.17
2018-01-29T01:53:16.460Z,81.26
2018-01-29T01:55:44.102Z,81.32
2018-01-29T01:58:11.819Z,81.28
2018-01-29T02:00:39.369Z,80.95
2018-01-29T02:03:07.179Z,80.61
2018-01-29T02:05:34.790Z,80.82
2018-01-29T02:08:02.389Z,80.71
2018-01-29T02:10:30.333Z,80.56
2018-01-29T02:12:57.944Z,80.59
2018-01-29T02:15:26.742Z,80.63
2018-01-29T02:17:54.477Z,80.42
2018-01-29T02:20:22.053Z,80.48
2018-01-29T02:22:49.647Z,80.38
2018-01-29T02:25:17.199Z,80.47
2018-01-29T02:27:44.821Z,80.57
2018-01-29T02:30:12.409Z,80.03
2018-01-29T02:32:39.977Z,79.95
2018-01-29T02:35:07.849Z,79.80
2018-01-29T02:37:35.750Z,80.16
2018-01-29T02:40:03.344Z,80.41
2018-01-29T02:42:30.955Z,80.33
2018-01-29T02:44:58.581Z,80.53
2018-01-29T02:47:26.504Z,80.94
2018-01-29T02:49:54.081Z,80.92
2018-01-29T02:52:21.755Z,80.83
2018-01-29T02:54:49.411Z,80.92
2018-01-29T02:57:17.017Z,80.85
2018-01-29T02:59:45.118Z,80.52
2018-01-29T03:02:13.099Z,80.67
2018-01-29T03:04:42.299Z,80.50
2018-01-29T03:07:10.406Z,80.41
2018-01-29T03:09:37.963Z,80.26
2018-01-29T03:12:05.628Z,80.41
2018-01-29T03:14:35.584Z,80.87
2018-01-29T03:17:03.202Z,80.94
2018-01-29T03:19:30.840Z,80.32
2018-01-29T03:21:58.426Z,80.23
2018-01-29T03:27:03.331Z,80.56
2018-01-29T03:29:31.439Z,80.36
2018-01-29T03:31:58.994Z,80.78
2018-01-29T03:34:26.761Z,80.91
2018-01-29T03:36:55.637Z,80.88
2018-01-29T03:39:23.343Z,80.96
2018-01-29T03:41:51.069Z,81.20
2018-01-29T03:44:18.667Z,81.27
2018-01-29T03:46:46.272Z,81.46
2018-01-29T03:49:14.264Z,81.47
2018-01-29T03:51:41.854Z,81.72
2018-01-29T03:54:09.468Z,81.92
2018-01-29T03:56:37.064Z,81.98
2018-01-29T03:59:04.674Z,82.14
2018-01-29T04:01:34.873Z,82.49
2018-01-29T04:04:02.441Z,82.70
2018-01-29T04:06:30.035Z,82.83
2018-01-29T04:08:57.623Z,82.76
2018-01-29T04:11:25.428Z,83.03
2018-01-29T04:13:53.036Z,83.29
2018-01-29T04:16:20.801Z,83.50
2018-01-29T04:18:48.547Z,83.26
2018-01-29T04:21:16.117Z,83.67
2018-01-29T04:23:43.788Z,83.50
2018-01-29T04:26:11.527Z,83.55
2018-01-29T04:28:39.081Z,83.65
2018-01-29T04:31:07.756Z,83.59
2018-01-29T04:33:35.513Z,83.54
2018-01-29T04:36:03.138Z,83.60
2018-01-29T04:38:30.695Z,83.28
2018-01-29T04:40:58.343Z,82.94
2018-01-29T04:43:26.741Z,83.04
2018-01-29T04:46:04.311Z,83.30
2018-01-29T04:48:31.900Z,83.56
2018-01-29T04:50:59.646Z,83.78
2018-01-29T04:53:27.469Z,83.80
2018-01-29T04:55:55.069Z,83.71
2018-01-29T04:58:22.733Z,83.71
2018-01-29T05:00:50.389Z,83.70
2018-01-29T05:03:17.963Z,83.75
2018-01-29T05:05:45.505Z,83.83
2018-01-29T05:08:13.088Z,83.83
2018-01-29T05:10:40.639Z,83.80
2018-01-29T05:13:09.512Z,83.97
2018-01-29T05:15:37.173Z,83.72
2018-01-29T05:18:05.583Z,83.48
2018-01-29T05:20:33.192Z,83.39
2018-01-29T05:23:00.770Z,83.23
2018-01-29T05:25:28.513Z,82.98
2018-01-29T05:27:56.113Z,82.90
2018-01-29T05:30:23.667Z,82.79
2018-01-29T05:32:51.223Z,83.20
2018-01-29T05:35:33.726Z,83.10
2018-01-29T05:41:00.894Z,83.26
2018-01-29T05:43:28.464Z,83.12
2018-01-29T05:45:56.030Z,82.96
2018-01-29T05:48:23.667Z,82.96
2018-01-29T05:50:51.226Z,82.96
2018-01-29T05:53:19.343Z,83.01
2018-01-29T05:55:47.154Z,82.78
2018-01-29T05:58:14.739Z,83.03
2018-01-29T06:00:42.341Z,82.76
2018-01-29T06:03:10.180Z,82.96
2018-01-29T06:05:37.814Z,83.10
2018-01-29T06:08:05.419Z,82.92
2018-01-29T06:10:33.136Z,82.67
2018-01-29T06:13:00.718Z,82.58
2018-01-29T06:15:28.359Z,82.72
2018-01-29T06:17:56.018Z,82.92
2018-01-29T06:20:23.608Z,82.76
2018-01-29T06:22:51.223Z,83.03
2018-01-29T06:25:18.799Z,82.87
2018-01-29T06:27:46.403Z,82.84
2018-01-29T06:30:14.028Z,83.16
2018-01-29T06:32:41.667Z,83.21
2018-01-29T06:35:09.859Z,83.19
2018-01-29T06:37:37.757Z,82.95
2018-01-29T06:40:05.346Z,83.04
2018-01-29T06:42:32.940Z,82.95
2018-01-29T06:45:00.529Z,83.02
2018-01-29T06:47:28.167Z,83.04
2018-01-29T06:49:55.713Z,83.27
2018-01-29T06:52:24.509Z,83.30
2018-01-29T06:54:52.099Z,83.01
2018-01-29T06:57:19.640Z,83.27
2018-01-29T06:59:47.216Z,83.47
2018-01-29T07:02:14.881Z,83.31
2018-01-29T07:04:42.819Z,83.41
2018-01-29T07:07:13.689Z,83.31
2018-01-29T07:09:41.403Z,83.38
2018-01-29T07:12:08.962Z,83.44
2018-01-29T07:14:37.365Z,83.38
2018-01-29T07:17:05.072Z,83.57
2018-01-29T07:19:32.756Z,83.58
2018-01-29T07:22:00.776Z,83.65
2018-01-29T07:24:28.348Z,83.49
2018-01-29T07:26:57.783Z,83.29
2018-01-29T07:29:25.340Z,83.25
2018-01-29T07:31:52.957Z,83.40
2018-01-29T07:34:20.586Z,83.49
2018-01-29T07:36:48.156Z,83.48
2018-01-29T07:39:16.052Z,83.84
2018-01-29T07:41:43.632Z,83.74
2018-01-29T07:44:13.037Z,83.90
2018-01-29T07:46:40.621Z,83.60
2018-01-29T07:49:08.235Z,83.46
2018-01-29T07:51:35.870Z,83.48
2018-01-29T07:54:03.749Z,83.37
2018-01-29T07:56:31.330Z,83.57
2018-01-29T07:58:59.602Z,83.71
2018-01-29T08:01:27.174Z,83.87
2018-01-29T08:03:54.766Z,83.83
2018-01-29T08:06:23.335Z,84.08
2018-01-29T08:08:50.997Z,83.99
2018-01-29T08:11:18.551Z,84.26
2018-01-29T08:13:46.248Z,84.45
2018-01-29T08:16:15.390Z,84.50
2018-01-29T08:18:42.969Z,84.39
2018-01-29T08:21:11.102Z,84.55
2018-01-29T08:23:38.716Z,84.24
2018-01-29T08:26:06.323Z,84.29
2018-01-29T08:28:33.899Z,84.14
2018-01-29T08:31:01.455Z,84.14
2018-01-29T08:33:29.469Z,84.17
2018-01-29T08:35:57.076Z,84.37
2018-01-29T08:38:24.814Z,84.48
2018-01-29T08:40:52.657Z,84.46
2018-01-29T08:43:20.243Z,84.36
2018-01-29T08:45:47.839Z,83.94
2018-01-29T08:48:15.514Z,84.16
2018-01-29T08:50:43.155Z,84.43
2018-01-29T08:53:11.257Z,84.31
2018-01-29T08:55:38.952Z,84.01
2018-01-29T08:58:06.521Z,84.08
2018-01-29T09:00:34.152Z,84.20
2018-01-29T09:03:01.743Z,84.34
2018-01-29T09:05:29.728Z,84.35
2018-01-29T09:07:57.359Z,84.24
2018-01-29T09:10:25.043Z,84.41
2018-01-29T09:12:52.630Z,84.17
2018-01-29T09:15:20.222Z,84.29
2018-01-29T09:17:47.851Z,84.05
2018-01-29T09:20:15.460Z,84.41
2018-01-29T09:22:43.020Z,84.91
2018-01-29T09:25:10.819Z,85.00
2018-01-29T09:27:38.445Z,85.14
2018-01-29T09:30:06.103Z,85.01
2018-01-29T09:32:33.777Z,84.52
2018-01-29T09:35:01.366Z,85.04
2018-01-29T09:37:28.931Z,84.86
2018-01-29T09:39:56.534Z,84.37
2018-01-29T09:42:24.114Z,84.47
2018-01-29T09:44:51.706Z,84.27
2018-01-29T09:47:19.277Z,84.04
2018-01-29T09:49:46.850Z,84.91
2018-01-29T09:52:14.476Z,84.96
2018-01-29T09:54:42.069Z,84.85
2018-01-29T09:57:12.218Z,84.63
2018-01-29T09:59:39.801Z,84.19
2018-01-29T10:02:07.399Z,84.56
2018-01-29T10:04:34.958Z,84.74
2018-01-29T10:07:02.514Z,84.34
2018-01-29T10:09:30.132Z,84.36
2018-01-29T10:11:57.679Z,84.54
2018-01-29T10:14:25.275Z,84.41
2018-01-29T10:16:52.848Z,84.28
2018-01-29T10:19:20.398Z,83.97
2018-01-29T10:21:47.968Z,83.79
2018-01-29T10:24:15.636Z,84.21
2018-01-29T10:26:43.249Z,84.57
2018-01-29T10:29:11.323Z,84.35
2018-01-29T10:31:38.961Z,83.96
2018-01-29T10:34:06.532Z,83.74
2018-01-29T10:36:34.182Z,83.95
2018-01-29T10:39:01.825Z,83.97
2018-01-29T10:41:29.811Z,83.30
2018-01-29T10:43:57.386Z,83.73
2018-01-29T10:46:25.606Z,83.58
2018-01-29T10:48:53.169Z,83.28
2018-01-29T10:51:20.741Z,83.58
2018-01-29T10:53:48.340Z,83.56
2018-01-29T10:56:15.958Z,82.84
2018-01-29T10:58:43.501Z,83.19
2018-01-29T11:01:16.733Z,83.53
2018-01-29T11:03:44.341Z,82.90
2018-01-29T11:06:12.009Z,82.03
2018-01-29T11:08:39.729Z,81.30
2018-01-29T11:11:07.464Z,81.89
2018-01-29T11:13:35.366Z,80.56
2018-01-29T11:16:04.657Z,81.29
2018-01-29T11:18:32.597Z,79.50
2018-01-29T11:21:01.219Z,79.01
2018-01-29T11:23:30.220Z,78.76
2018-01-29T11:25:57.866Z,78.50
2018-01-29T11:28:25.434Z,77.63
2018-01-29T11:30:53.067Z,77.13
2018-01-29T11:33:20.952Z,76.04
2018-01-29T11:35:50.600Z,76.04
2018-01-29T11:38:18.232Z,76.17
2018-01-29T11:40:46.908Z,76.24
2018-01-29T11:43:14.758Z,74.61
2018-01-29T11:45:42.650Z,74.79
2018-01-29T11:48:10.407Z,75.62
2018-01-29T11:50:37.943Z,75.91
2018-01-29T11:53:06.097Z,74.93
2018-01-29T11:55:34.350Z,75.16
2018-01-29T11:58:05.259Z,75.08
2018-01-29T12:00:32.860Z,74.46
2018-01-29T12:03:00.425Z,74.74
2018-01-29T12:05:28.095Z,73.70
2018-01-29T12:07:55.736Z,73.37
2018-01-29T12:10:23.362Z,73.51
2018-01-29T12:12:50.929Z,72.35
2018-01-29T12:15:18.510Z,71.88
2018-01-29T12:17:46.094Z,71.38
2018-01-29T12:20:13.683Z,70.34
2018-01-29T12:22:41.291Z,69.15
2018-01-29T12:25:08.893Z,66.04
2018-01-29T12:27:36.453Z,64.02
2018-01-29T12:30:04.018Z,63.77
2018-01-29T12:32:31.612Z,63.12
2018-01-29T12:34:59.197Z,63.12
2018-01-29T12:37:26.789Z,61.80
2018-01-29T12:39:54.391Z,60.78
2018-01-29T12:42:21.983Z,60.68
2018-01-29T12:44:49.624Z,60.24
2018-01-29T12:47:17.214Z,60.63
2018-01-29T12:49:44.858Z,59.84
2018-01-29T12:52:12.423Z,59.82
2018-01-29T12:54:40.344Z,59.34
2018-01-29T12:57:07.973Z,59.92
2018-01-29T12:59:35.614Z,60.76
2018-01-29T13:02:03.195Z,60.87
2018-01-29T13:04:30.813Z,60.44
2018-01-29T13:06:58.365Z,59.48
2018-01-29T13:09:25.953Z,60.08
2018-01-29T13:11:53.581Z,60.08
2018-01-29T13:14:21.157Z,58.83
2018-01-29T13:16:48.781Z,58.59
2018-01-29T13:19:16.399Z,58.46
2018-01-29T13:21:43.962Z,59.27
2018-01-29T13:24:11.509Z,60.80
2018-01-29T13:26:39.086Z,60.77
2018-01-29T13:29:06.693Z,60.13
2018-01-29T13:31:34.555Z,58.21
2018-01-29T13:34:02.140Z,57.92
2018-01-29T13:36:29.784Z,57.75
2018-01-29T13:38:57.911Z,56.83
2018-01-29T13:41:26.031Z,58.35
2018-01-29T13:43:53.647Z,57.99
2018-01-29T13:46:21.189Z,58.60
2018-01-29T13:48:48.781Z,58.88
2018-01-29T13:51:16.369Z,59.44
2018-01-29T13:53:43.949Z,59.14
2018-01-29T13:56:11.509Z,58.62
2018-01-29T13:58:39.063Z,58.28
2018-01-29T14:01:06.683Z,57.36
2018-01-29T14:03:34.240Z,58.04
2018-01-29T14:06:01.809Z,57.80
2018-01-29T14:08:29.623Z,58.04
2018-01-29T14:10:57.313Z,57.64
2018-01-29T14:13:24.950Z,58.07
2018-01-29T14:15:52.648Z,59.06
2018-01-29T14:18:20.303Z,59.06
2018-01-29T14:20:48.200Z,59.93
2018-01-29T14:23:15.826Z,60.82
2018-01-29T14:25:43.370Z,61.51
2018-01-29T14:28:10.937Z,61.27
2018-01-29T14:30:38.497Z,62.40
2018-01-29T14:33:06.139Z,62.99
2018-01-29T14:35:33.727Z,63.14
2018-01-29T14:38:01.329Z,63.25
2018-01-29T14:40:29.171Z,63.46
2018-01-29T14:42:56.805Z,64.20
2018-01-29T14:45:24.353Z,64.68
2018-01-29T14:47:52.146Z,64.61
2018-01-29T14:50:19.784Z,64.91
2018-01-29T14:52:47.393Z,65.42
2018-01-29T14:55:14.988Z,66.03
2018-01-29T14:57:42.581Z,66.03
2018-01-29T15:00:10.202Z,67.10
2018-01-29T15:02:37.823Z,67.60
2018-01-29T15:05:05.420Z,69.62
2018-01-29T15:07:33.000Z,70.53
2018-01-29T15:10:00.582Z,71.35
2018-01-29T15:12:28.136Z,71.31
2018-01-29T15:14:55.758Z,72.14
2018-01-29T15:17:23.360Z,72.19
2018-01-29T15:19:50.979Z,72.04
2018-01-29T15:22:18.567Z,72.59
2018-01-29T15:24:46.159Z,72.71
2018-01-29T15:27:13.748Z,72.50
2018-01-29T15:29:41.302Z,72.36
2018-01-29T15:32:08.864Z,71.54
2018-01-29T15:34:36.468Z,71.57
2018-01-29T15:37:04.230Z,71.60
2018-01-29T15:39:31.849Z,71.62
2018-01-29T15:41:59.417Z,72.42
2018-01-29T15:44:27.015Z,72.76
2018-01-29T15:46:54.631Z,73.10
2018-01-29T15:49:22.190Z,73.69
2018-01-29T15:51:49.823Z,73.87
2018-01-29T15:54:17.411Z,74.00
2018-01-29T15:56:44.985Z,74.39
2018-01-29T15:59:12.715Z,74.32
2018-01-29T16:01:40.350Z,74.32
2018-01-29T16:04:07.883Z,74.13
2018-01-29T16:06:35.496Z,74.08
2018-01-29T16:09:03.364Z,74.37
2018-01-29T16:11:32.999Z,74.47
2018-01-29T16:14:00.574Z,74.70
2018-01-29T16:16:28.149Z,75.17
2018-01-29T16:18:55.693Z,75.43
2018-01-29T16:21:23.278Z,75.85
2018-01-29T16:23:50.896Z,75.86
2018-01-29T16:26:18.478Z,75.92
2018-01-29T16:28:46.050Z,75.85
2018-01-29T16:31:13.645Z,75.81
2018-01-29T16:33:41.227Z,75.82
2018-01-29T16:36:08.805Z,75.95
2018-01-29T16:38:36.385Z,76.37
2018-01-29T16:41:04.030Z,76.66
2018-01-29T16:43:31.609Z,77.14
2018-01-29T16:46:00.083Z,77.06
2018-01-29T16:48:27.701Z,77.16
2018-01-29T16:50:55.267Z,77.21
2018-01-29T16:53:23.263Z,77.55
2018-01-29T16:55:50.966Z,77.28
2018-01-29T16:58:18.665Z,77.11
2018-01-29T17:00:46.358Z,77.50
2018-01-29T17:03:13.893Z,78.00
2018-01-29T17:05:42.489Z,77.96
2018-01-29T17:08:10.257Z,77.74
2018-01-29T17:10:37.786Z,77.68
2018-01-29T17:13:05.450Z,77.65
2018-01-29T17:15:33.128Z,77.66
2018-01-29T17:18:00.679Z,77.73
2018-01-29T17:20:28.339Z,77.60
2018-01-29T17:22:56.048Z,77.49
2018-01-29T17:25:24.423Z,77.72
2018-01-29T17:27:52.134Z,77.70
2018-01-29T17:30:19.706Z,77.74
2018-01-29T17:32:47.421Z,76.46
2018-01-29T17:35:15.436Z,76.48
2018-01-29T17:37:43.058Z,76.56
2018-01-29T17:40:10.639Z,76.63
2018-01-29T17:42:38.235Z,77.19
2018-01-29T17:45:06.387Z,77.28
2018-01-29T17:47:33.952Z,77.51
2018-01-29T17:50:01.607Z,77.20
2018-01-29T17:52:29.203Z,77.56
2018-01-29T17:54:56.837Z,77.70
2018-01-29T17:57:24.651Z,77.57
2018-01-29T17:59:52.248Z,77.56
2018-01-29T18:02:19.800Z,77.14
2018-01-29T18:04:47.383Z,77.31
2018-01-29T18:07:15.235Z,77.24
2018-01-29T18:09:42.951Z,77.13
2018-01-29T18:12:11.174Z,77.45
2018-01-29T18:14:38.829Z,78.20
2018-01-29T18:17:06.480Z,78.42
2018-01-29T18:19:34.039Z,76.87
2018-01-29T18:22:01.646Z,76.85
2018-01-29T18:24:29.212Z,77.45
2018-01-29T18:26:56.762Z,77.86
2018-01-29T18:29:24.664Z,77.73
2018-01-29T18:31:52.268Z,77.97
2018-01-29T18:34:19.923Z,78.13
2018-01-29T18:36:47.690Z,78.34
2018-01-29T18:39:15.267Z,78.25
2018-01-29T18:41:42.842Z,78.51
2018-01-29T18:44:10.762Z,78.61
2018-01-29T18:46:38.480Z,78.52
2018-01-29T18:49:06.134Z,78.52
2018-01-29T18:51:34.278Z,78.57
2018-01-29T18:54:01.893Z,78.61
2018-01-29T18:56:29.499Z,78.52
2018-01-29T18:58:57.086Z,78.76
2018-01-29T19:01:24.706Z,78.17
2018-01-29T19:03:52.295Z,78.04
2018-01-29T19:06:19.969Z,78.78
2018-01-29T19:08:47.546Z,79.08
2018-01-29T19:11:15.490Z,78.56
2018-01-29T19:13:43.109Z,78.00
2018-01-29T19:16:10.729Z,78.01
2018-01-29T19:18:38.293Z,78.02
2018-01-29T19:21:07.211Z,77.72
2018-01-29T19:23:36.743Z,76.88
2018-01-29T19:26:04.418Z,76.84
2018-01-29T19:28:32.020Z,76.98
2018-01-29T19:31:00.074Z,77.08
2018-01-29T19:33:29.446Z,76.66
2018-01-29T19:35:57.030Z,77.00
2018-01-29T19:38:27.640Z,76.78
2018-01-29T19:40:56.371Z,76.79
2018-01-29T19:43:24.774Z,76.77
2018-01-29T19:45:52.367Z,76.94
2018-01-29T19:48:19.942Z,76.88
2018-01-29T19:50:47.509Z,75.51
2018-01-29T19:53:15.610Z,75.56
2018-01-29T19:55:43.349Z,74.76
2018-01-29T19:58:11.513Z,74.01
2018-01-29T20:00:39.071Z,74.25
2018-01-29T20:03:06.680Z,74.62
2018-01-29T20:05:34.265Z,75.07
2018-01-29T20:08:01.849Z,74.48
2018-01-29T20:10:29.780Z,74.30
2018-01-29T20:12:57.530Z,74.51
2018-01-29T20:15:25.204Z,74.71
2018-01-29T20:17:52.854Z,74.79
2018-01-29T20:20:20.398Z,75.45
2018-01-29T20:22:48.037Z,76.12
2018-01-29T20:25:15.630Z,76.77
2018-01-29T20:27:43.255Z,76.81
2018-01-29T20:30:10.809Z,77.20
2018-01-29T20:32:38.384Z,77.78
2018-01-29T20:35:06.009Z,78.09
2018-01-29T20:37:34.338Z,78.23
2018-01-29T20:40:02.263Z,78.11
2018-01-29T20:42:29.812Z,77.93
2018-01-29T20:44:57.377Z,77.95
2018-01-29T20:47:25.345Z,77.98
2018-01-29T20:49:52.929Z,77.86
2018-01-29T20:52:20.535Z,78.05
2018-01-29T20:54:48.105Z,78.08
2018-01-29T20:57:15.685Z,78.24
2018-01-29T20:59:43.237Z,78.15
2018-01-29T21:05:00.971Z,78.01
2018-01-29T21:07:28.549Z,78.20
2018-01-29T21:09:56.149Z,78.11
2018-01-29T21:12:24.581Z,78.06
2018-01-29T21:14:52.184Z,78.08
2018-01-29T21:17:19.829Z,77.84
2018-01-29T21:19:47.447Z,77.56
2018-01-29T21:22:15.144Z,77.98
2018-01-29T21:24:42.698Z,77.77
2018-01-29T21:27:11.159Z,77.58
2018-01-29T21:29:38.734Z,77.78
2018-01-29T21:32:06.315Z,77.70
2018-01-29T21:34:33.922Z,77.78
2018-01-29T21:37:01.502Z,78.08
2018-01-29T21:39:29.085Z,77.33
2018-01-29T21:41:56.704Z,77.76
2018-01-29T21:44:25.209Z,77.84
2018-01-29T21:46:52.770Z,77.46
2018-01-29T21:49:20.607Z,77.64
2018-01-29T21:51:48.233Z,76.88
2018-01-29T21:54:15.878Z,76.94
2018-01-29T21:56:43.511Z,75.95
2018-01-29T21:59:11.134Z,76.55
2018-01-29T22:01:38.705Z,76.49
2018-01-29T22:04:06.615Z,76.63
2018-01-29T22:06:34.189Z,76.53
2018-01-29T22:09:01.997Z,76.10
2018-01-29T22:11:29.676Z,75.93
2018-01-29T22:13:57.257Z,75.16
2018-01-29T22:16:24.869Z,75.00
2018-01-29T22:18:52.529Z,74.50
2018-01-29T22:21:20.099Z,73.89
2018-01-29T22:23:47.807Z,73.49
2018-01-29T22:26:15.506Z,73.27
2018-01-29T22:28:43.073Z,73.29
2018-01-29T22:31:10.754Z,72.86
2018-01-29T22:33:38.333Z,72.78
2018-01-29T22:36:06.139Z,72.64
2018-01-29T22:38:33.705Z,72.66
2018-01-29T22:41:01.277Z,71.37
2018-01-29T22:43:29.022Z,71.64
2018-01-29T22:45:56.696Z,71.67
2018-01-29T22:48:24.305Z,71.73
2018-01-29T22:50:51.881Z,72.33
2018-01-29T22:53:19.650Z,72.24
2018-01-29T22:55:47.270Z,72.08
2018-01-29T22:58:14.842Z,72.41
2018-01-29T23:00:42.391Z,72.56
2018-01-29T23:03:11.658Z,72.65
2018-01-29T23:05:39.282Z,72.98
2018-01-29T23:08:06.832Z,72.94
2018-01-29T23:10:34.420Z,73.28
2018-01-29T23:13:01.999Z,73.62
2018-01-29T23:15:29.654Z,73.74
2018-01-29T23:17:57.606Z,73.74
2018-01-29T23:20:25.164Z,74.18
2018-01-29T23:22:52.731Z,74.11
2018-01-29T23:25:20.297Z,74.06
2018-01-29T23:27:47.897Z,74.56
2018-01-29T23:30:15.524Z,74.25
2018-01-29T23:32:43.121Z,74.07
2018-01-29T23:35:10.902Z,73.74
2018-01-29T23:37:38.525Z,74.00
2018-01-29T23:40:06.140Z,74.09
2018-01-29T23:42:34.891Z,74.37
2018-01-29T23:45:03.563Z,74.66
2018-01-29T23:47:31.128Z,75.04
2018-01-29T23:49:58.721Z,74.94
2018-01-29T23:52:26.316Z,75.16
2018-01-29T23:54:57.592Z,75.19
2018-01-29T23:57:25.163Z,75.55
2018-01-29T23:59:52.774Z,75.34
